Time;durP1;ratioP1;P1;durP2;ratioP2;P2;SDS_P1;SDS_P2;PMS_P1;PMS_P2;Temp;Humidity;BMP_temperature;BMP_pressure;BME280_temperature;BME280_humidity;BME280_pressure;Samples;Min_cycle;Max_cycle;Signal;HPM_P1;HPM_P2
2022/09/01 00:01:11;;;;;;;12.37;11.17;;;15.90;99.90;;;;;;5075188;28;20564;-79
2022/09/01 00:03:38;;;;;;;11.87;10.87;;;15.90;99.90;;;;;;5075952;28;20292;-78
2022/09/01 00:06:09;;;;;;;11.13;10.13;;;16.00;99.90;;;;;;5075180;28;20299;-79
2022/09/01 00:08:35;;;;;;;12.53;11.33;;;16.00;99.90;;;;;;5075534;28;20224;-79
2022/09/01 00:11:02;;;;;;;11.90;10.70;;;16.10;99.90;;;;;;5075495;28;20205;-79
2022/09/01 00:13:32;;;;;;;11.30;10.27;;;16.10;99.90;;;;;;5075207;28;20242;-79
2022/09/01 00:15:58;;;;;;;11.57;10.57;;;16.10;99.90;;;;;;5075191;28;20197;-79
2022/09/01 00:18:27;;;;;;;11.70;10.70;;;16.10;99.90;;;;;;5075055;28;20263;-79
2022/09/01 00:20:57;;;;;;;11.95;10.85;;;16.10;99.90;;;;;;5074856;28;20247;-79
2022/09/01 00:23:24;;;;;;;12.47;11.37;;;16.10;99.90;;;;;;5074973;28;20193;-79
2022/09/01 00:25:51;;;;;;;12.82;11.65;;;16.10;99.90;;;;;;5074757;28;20644;-79
2022/09/01 00:28:18;;;;;;;13.00;11.90;;;16.20;99.90;;;;;;5074764;28;20205;-79
2022/09/01 00:30:44;;;;;;;12.30;11.13;;;16.20;99.90;;;;;;5074812;28;20197;-79
2022/09/01 00:33:11;;;;;;;13.00;11.80;;;16.20;99.90;;;;;;5074616;28;20197;-78
2022/09/01 00:35:39;;;;;;;11.87;10.77;;;16.20;99.90;;;;;;5074714;28;20227;-79
2022/09/01 00:38:06;;;;;;;12.73;11.52;;;16.10;99.90;;;;;;5074710;28;20197;-79
2022/09/01 00:40:33;;;;;;;12.50;11.40;;;16.10;99.90;;;;;;5074595;28;20197;-79
2022/09/01 00:42:59;;;;;;;12.80;11.60;;;16.10;99.90;;;;;;5074467;28;20200;-79
2022/09/01 00:45:27;;;;;;;13.63;12.23;;;15.90;99.90;;;;;;5074330;28;20246;-79
2022/09/01 00:47:53;;;;;;;13.17;12.07;;;15.90;99.90;;;;;;5074828;28;20201;-78
2022/09/01 00:50:21;;;;;;;12.33;11.23;;;15.80;99.90;;;;;;5074575;28;20255;-79
2022/09/01 00:52:52;;;;;;;13.60;12.40;;;15.80;99.90;;;;;;5074335;28;20201;-78
2022/09/01 00:55:24;;;;;;;14.67;13.13;;;15.70;99.90;;;;;;5073996;28;20236;-79
2022/09/01 00:57:51;;;;;;;13.63;12.37;;;15.60;99.90;;;;;;5074128;28;20205;-78
2022/09/01 01:00:20;;;;;;;14.80;13.03;;;15.60;99.90;;;;;;5074049;28;20227;-79
2022/09/01 01:02:47;;;;;;;14.33;12.97;;;15.60;99.90;;;;;;5074227;28;20247;-79
2022/09/01 01:05:15;;;;;;;15.27;13.67;;;15.60;99.90;;;;;;5074175;28;20205;-79
2022/09/01 01:07:43;;;;;;;13.93;12.73;;;15.70;99.90;;;;;;5073991;28;20197;-79
2022/09/01 01:10:14;;;;;;;14.00;12.60;;;15.70;99.90;;;;;;5073963;28;20254;-79
2022/09/01 01:12:42;;;;;;;13.60;12.20;;;15.70;99.90;;;;;;5073425;28;20223;-79
2022/09/01 01:15:10;;;;;;;13.97;12.63;;;15.70;99.90;;;;;;5074032;28;20244;-79
2022/09/01 01:17:37;;;;;;;12.70;11.47;;;15.70;99.90;;;;;;5073644;28;20657;-79
2022/09/01 01:23:05;;;;;;;13.13;11.73;;;15.60;99.90;;;;;;5073727;28;20282;-79
2022/09/01 01:25:36;;;;;;;12.70;11.43;;;15.70;99.90;;;;;;5073664;28;20258;-79
2022/09/01 01:28:05;;;;;;;12.37;11.27;;;15.70;99.90;;;;;;5073799;28;20205;-79
2022/09/01 01:30:35;;;;;;;12.87;11.67;;;15.70;99.90;;;;;;5073370;28;20602;-79
2022/09/01 01:33:03;;;;;;;12.40;11.27;;;15.70;99.90;;;;;;5073568;28;20201;-79
2022/09/01 01:35:32;;;;;;;13.23;11.93;;;15.60;99.90;;;;;;5073215;28;20641;-79
2022/09/01 01:38:00;;;;;;;12.53;11.43;;;15.50;99.90;;;;;;5073347;28;20208;-79
2022/09/01 01:40:28;;;;;;;13.00;11.83;;;15.40;99.90;;;;;;5073467;28;20584;-79
2022/09/01 01:42:59;;;;;;;13.37;12.17;;;15.30;99.90;;;;;;5073364;28;20197;-79
2022/09/01 01:45:27;;;;;;;11.50;10.50;;;15.20;99.90;;;;;;5073302;28;20201;-79
2022/09/01 01:47:55;;;;;;;13.37;12.17;;;15.10;99.90;;;;;;5073244;28;20201;-79
2022/09/01 01:50:23;;;;;;;13.87;12.53;;;15.10;99.90;;;;;;5073124;28;20251;-78
2022/09/01 01:52:49;;;;;;;14.80;13.30;;;15.00;99.90;;;;;;5073411;28;20294;-78
2022/09/01 01:55:18;;;;;;;14.20;12.90;;;14.90;99.90;;;;;;5073084;28;20302;-78
2022/09/01 01:57:48;;;;;;;15.57;13.33;;;14.80;99.90;;;;;;5073225;28;20197;-79
2022/09/01 02:00:19;;;;;;;14.57;13.17;;;14.80;99.90;;;;;;5073220;28;20205;-79
2022/09/01 02:02:51;;;;;;;15.60;14.13;;;14.70;99.90;;;;;;5073061;28;20203;-78
2022/09/01 02:05:20;;;;;;;15.50;14.10;;;14.70;99.90;;;;;;5073242;28;20215;-78
2022/09/01 02:07:47;;;;;;;15.07;13.57;;;14.60;99.90;;;;;;5073108;28;20197;-77
2022/09/01 02:10:14;;;;;;;17.67;15.03;;;14.40;99.90;;;;;;5073042;28;20208;-79
2022/09/01 02:12:42;;;;;;;15.93;14.43;;;14.40;99.90;;;;;;5072853;28;20533;-78
2022/09/01 02:15:11;;;;;;;14.63;13.23;;;14.30;99.90;;;;;;5072674;28;20227;-78
2022/09/01 02:17:42;;;;;;;15.83;14.03;;;14.30;99.90;;;;;;5073011;28;20197;-78
2022/09/01 02:20:09;;;;;;;16.53;15.00;;;14.30;99.90;;;;;;5072960;28;20255;-78
2022/09/01 02:22:38;;;;;;;16.83;15.23;;;14.20;99.90;;;;;;5072669;28;20200;-78
2022/09/01 02:25:05;;;;;;;16.50;14.70;;;14.10;99.90;;;;;;5072059;28;20208;-79
2022/09/01 02:27:34;;;;;;;16.20;14.70;;;14.10;99.90;;;;;;5072695;28;20725;-78
2022/09/01 02:30:01;;;;;;;18.23;16.43;;;14.00;99.90;;;;;;5072606;28;20198;-78
2022/09/01 02:32:27;;;;;;;18.10;16.20;;;14.00;99.90;;;;;;5072608;28;20649;-79
2022/09/01 02:35:00;;;;;;;19.10;17.13;;;14.00;99.90;;;;;;5072727;28;20274;-78
2022/09/01 02:37:28;;;;;;;17.50;15.87;;;13.90;99.90;;;;;;5072653;28;20200;-79
2022/09/01 02:39:56;;;;;;;19.57;17.23;;;13.90;99.90;;;;;;5072684;28;20197;-79
2022/09/01 02:42:26;;;;;;;20.33;17.53;;;13.90;99.90;;;;;;5072473;28;20552;-79
2022/09/01 02:44:53;;;;;;;20.13;18.00;;;14.00;99.90;;;;;;5072530;28;20204;-78
2022/09/01 02:47:22;;;;;;;18.47;16.57;;;13.90;99.90;;;;;;5072638;28;20193;-78
2022/09/01 02:49:49;;;;;;;19.27;16.40;;;13.90;99.90;;;;;;5072440;28;20632;-79
2022/09/01 02:52:19;;;;;;;18.17;16.47;;;13.90;99.90;;;;;;5072599;28;20208;-78
2022/09/01 02:54:49;;;;;;;20.83;18.70;;;13.90;99.90;;;;;;5072304;28;20327;-78
2022/09/01 02:57:17;;;;;;;20.47;18.27;;;14.00;99.90;;;;;;5072666;28;20201;-79
2022/09/01 02:59:44;;;;;;;18.33;16.53;;;13.90;99.90;;;;;;5072583;28;20197;-78
2022/09/01 03:02:10;;;;;;;19.90;16.37;;;13.90;99.90;;;;;;5072488;28;20224;-78
2022/09/01 03:04:37;;;;;;;18.20;16.40;;;13.70;99.90;;;;;;5072398;28;20719;-78
2022/09/01 03:07:05;;;;;;;18.20;16.37;;;13.70;99.90;;;;;;5072333;28;20250;-78
2022/09/01 03:09:34;;;;;;;19.07;17.07;;;13.80;99.90;;;;;;5072237;28;20296;-79
2022/09/01 03:12:01;;;;;;;19.87;17.63;;;13.80;99.90;;;;;;5072468;28;20221;-78
2022/09/01 03:14:28;;;;;;;20.93;16.97;;;13.90;99.90;;;;;;5072337;28;20270;-78
2022/09/01 03:16:56;;;;;;;18.10;16.20;;;13.90;99.90;;;;;;5072169;28;20614;-78
2022/09/01 03:19:23;;;;;;;18.37;16.60;;;13.90;99.90;;;;;;5072246;28;20276;-79
2022/09/01 03:21:49;;;;;;;17.80;16.03;;;13.80;99.90;;;;;;5072242;28;20246;-79
2022/09/01 03:24:18;;;;;;;18.13;16.17;;;13.90;99.90;;;;;;5072109;28;20201;-78
2022/09/01 03:26:48;;;;;;;19.90;17.80;;;13.90;99.90;;;;;;5072476;28;20197;-78
2022/09/01 03:29:15;;;;;;;18.50;16.67;;;13.90;99.90;;;;;;5072318;28;20204;-79
2022/09/01 03:31:42;;;;;;;18.77;16.80;;;13.80;99.90;;;;;;5072155;28;20205;-79
2022/09/01 03:34:11;;;;;;;19.70;17.63;;;13.80;99.90;;;;;;5072045;28;20197;-78
2022/09/01 03:36:38;;;;;;;18.33;16.53;;;13.70;99.90;;;;;;5075437;28;20256;-78
2022/09/01 03:39:08;;;;;;;19.20;17.30;;;13.70;99.90;;;;;;5075582;28;20558;-78
2022/09/01 03:41:35;;;;;;;18.60;16.80;;;13.70;99.90;;;;;;5075582;28;20722;-78
2022/09/01 03:44:03;;;;;;;19.37;17.43;;;13.70;99.90;;;;;;5075656;28;20197;-79
2022/09/01 03:46:31;;;;;;;19.47;17.60;;;13.70;99.90;;;;;;5075460;28;20656;-77
2022/09/01 03:49:00;;;;;;;19.50;17.60;;;13.60;99.90;;;;;;5075462;28;20201;-78
2022/09/01 03:51:29;;;;;;;20.93;18.47;;;13.70;99.90;;;;;;5075386;28;20663;-78
2022/09/01 03:53:58;;;;;;;20.17;18.13;;;13.60;99.90;;;;;;5075126;28;20668;-77
2022/09/01 03:56:27;;;;;;;20.63;18.50;;;13.70;99.90;;;;;;5075477;28;20261;-77
2022/09/01 03:58:55;;;;;;;21.30;19.17;;;13.60;99.90;;;;;;5075306;28;20201;-78
2022/09/01 04:01:23;;;;;;;20.30;18.30;;;13.70;99.90;;;;;;5075159;28;20729;-77
2022/09/01 04:03:51;;;;;;;22.87;19.33;;;13.70;99.90;;;;;;5075134;28;20718;-78
2022/09/01 04:06:19;;;;;;;21.23;19.13;;;13.60;99.90;;;;;;5075353;28;20201;-78
2022/09/01 04:08:46;;;;;;;22.83;20.43;;;13.60;99.90;;;;;;5075299;28;20207;-77
2022/09/01 04:11:22;;;;;;;21.43;18.90;;;13.60;99.90;;;;;;5075141;28;20258;-79
2022/09/01 04:13:49;;;;;;;21.67;19.47;;;13.70;99.90;;;;;;5074946;28;20725;-77
2022/09/01 04:19:14;;;;;;;23.30;20.83;;;13.70;99.90;;;;;;5074985;28;20200;-78
2022/09/01 04:21:42;;;;;;;23.37;20.97;;;13.80;99.90;;;;;;5075071;28;20209;-78
2022/09/01 04:24:11;;;;;;;22.47;20.20;;;13.80;99.90;;;;;;5074864;28;20193;-78
2022/09/01 04:26:37;;;;;;;23.00;20.60;;;13.80;99.90;;;;;;5074760;28;20196;-78
2022/09/01 04:29:05;;;;;;;22.23;19.87;;;13.90;99.90;;;;;;5074971;28;20201;-78
2022/09/01 04:31:32;;;;;;;21.47;19.37;;;14.00;99.90;;;;;;5074897;28;20252;-78
2022/09/01 04:33:58;;;;;;;20.97;18.90;;;13.90;99.90;;;;;;5074693;28;20591;-78
2022/09/01 04:36:31;;;;;;;20.67;18.67;;;13.80;99.90;;;;;;5074593;28;20250;-78
2022/09/01 04:38:59;;;;;;;19.67;17.67;;;13.70;99.90;;;;;;5074578;28;20201;-79
2022/09/01 04:41:29;;;;;;;20.40;18.27;;;13.70;99.90;;;;;;5074577;28;20208;-79
2022/09/01 04:43:57;;;;;;;21.43;19.23;;;13.70;99.90;;;;;;5075187;28;20201;-80
2022/09/01 04:46:27;;;;;;;24.60;21.37;;;13.50;99.90;;;;;;5073780;28;20254;-79
2022/09/01 04:48:56;;;;;;;21.73;19.60;;;13.50;99.90;;;;;;5074478;28;20201;-79
2022/09/01 04:51:26;;;;;;;21.53;19.43;;;13.50;99.90;;;;;;5074144;28;20645;-79
2022/09/01 04:53:56;;;;;;;21.40;19.23;;;13.40;99.90;;;;;;5074160;28;20684;-79
2022/09/01 04:56:24;;;;;;;21.07;18.97;;;13.50;99.90;;;;;;5074258;28;20224;-80
2022/09/01 04:58:52;;;;;;;20.60;18.50;;;13.70;99.90;;;;;;5074155;28;20205;-77
2022/09/01 05:01:25;;;;;;;22.20;19.23;;;13.80;99.90;;;;;;5074206;28;20204;-79
2022/09/01 05:04:00;;;;;;;21.73;18.50;;;13.90;99.90;;;;;;5073929;28;20201;-79
2022/09/01 05:06:28;;;;;;;21.70;19.50;;;14.00;99.90;;;;;;5074136;28;20208;-79
2022/09/01 05:08:56;;;;;;;20.70;18.50;;;14.10;99.90;;;;;;5074053;28;20197;-79
2022/09/01 05:11:24;;;;;;;19.70;17.80;;;14.20;99.90;;;;;;5074207;28;20197;-79
2022/09/01 05:13:54;;;;;;;20.17;16.87;;;14.40;99.90;;;;;;5073850;28;20288;-80
2022/09/01 05:16:22;;;;;;;18.23;16.43;;;14.40;99.90;;;;;;5073738;28;20229;-79
2022/09/01 05:18:50;;;;;;;16.03;14.53;;;14.50;99.90;;;;;;5073984;28;20201;-79
2022/09/01 05:21:21;;;;;;;15.90;14.40;;;14.60;99.90;;;;;;5073862;28;20197;-79
2022/09/01 05:23:50;;;;;;;16.60;15.10;;;14.70;99.90;;;;;;5073679;28;20204;-79
2022/09/01 05:26:21;;;;;;;15.00;13.47;;;14.70;99.90;;;;;;5073684;28;20201;-80
2022/09/01 05:28:52;;;;;;;16.13;13.60;;;14.90;99.90;;;;;;5073551;28;20228;-80
2022/09/01 05:31:20;;;;;;;14.43;13.10;;;14.90;99.90;;;;;;5073516;28;20220;-80
2022/09/01 05:33:48;;;;;;;13.40;12.20;;;15.00;99.90;;;;;;5073737;28;20603;-80
2022/09/01 05:36:18;;;;;;;13.13;11.93;;;15.00;99.90;;;;;;5073213;28;20220;-80
2022/09/01 05:38:46;;;;;;;15.10;13.47;;;15.20;99.90;;;;;;5073514;28;20648;-80
2022/09/01 05:41:15;;;;;;;12.93;11.53;;;15.30;99.90;;;;;;5073227;28;20550;-80
2022/09/01 05:43:45;;;;;;;12.63;11.33;;;15.40;99.90;;;;;;5073087;28;20205;-80
2022/09/01 05:46:15;;;;;;;13.83;11.23;;;15.60;99.90;;;;;;5073275;28;20288;-80
2022/09/01 05:48:42;;;;;;;12.43;10.60;;;15.80;99.90;;;;;;5073263;28;20254;-79
2022/09/01 05:51:09;;;;;;;13.07;10.77;;;16.00;99.90;;;;;;5073347;28;20591;-79
2022/09/01 05:53:36;;;;;;;11.63;10.25;;;16.00;99.90;;;;;;5073098;28;20491;-79
2022/09/01 05:56:08;;;;;;;10.73;9.67;;;16.20;99.90;;;;;;5072715;28;20245;-79
2022/09/01 05:58:37;;;;;;;10.55;9.55;;;16.40;99.90;;;;;;5073130;28;20201;-79
2022/09/01 06:01:05;;;;;;;10.48;9.38;;;16.50;99.90;;;;;;5073052;28;20214;-79
2022/09/01 06:03:33;;;;;;;9.70;8.70;;;16.50;99.90;;;;;;5073054;28;20625;-79
2022/09/01 06:06:04;;;;;;;9.82;8.93;;;16.70;99.90;;;;;;5073053;28;20228;-80
2022/09/01 06:08:31;;;;;;;10.57;9.57;;;16.70;99.90;;;;;;5072770;28;20250;-79
2022/09/01 06:10:57;;;;;;;9.85;8.95;;;16.80;99.90;;;;;;5072781;28;20204;-79
2022/09/01 06:13:24;;;;;;;10.70;9.57;;;16.90;99.90;;;;;;5072993;28;20201;-79
2022/09/01 06:15:52;;;;;;;10.55;9.55;;;16.80;99.90;;;;;;5072835;28;20672;-79
2022/09/01 06:18:22;;;;;;;10.13;9.13;;;16.90;99.90;;;;;;5072782;28;20205;-79
2022/09/01 06:20:48;;;;;;;10.15;9.15;;;17.00;99.90;;;;;;5072844;28;20224;-78
2022/09/01 06:23:17;;;;;;;12.98;8.77;;;16.90;99.90;;;;;;5072688;28;20201;-78
2022/09/01 06:25:45;;;;;;;12.95;9.50;;;16.90;99.90;;;;;;5072919;28;20240;-78
2022/09/01 06:28:13;;;;;;;9.27;8.48;;;17.00;99.90;;;;;;5072755;28;20250;-78
2022/09/01 06:30:41;;;;;;;9.40;8.52;;;17.10;99.90;;;;;;5072515;28;20648;-78
2022/09/01 06:33:09;;;;;;;10.32;8.85;;;17.10;99.90;;;;;;5072870;28;20208;-78
2022/09/01 06:35:39;;;;;;;9.30;8.38;;;17.20;99.90;;;;;;5072624;28;20216;-81
2022/09/01 06:38:06;;;;;;;9.45;8.65;;;17.30;99.90;;;;;;5073008;28;20208;-80
2022/09/01 06:40:34;;;;;;;9.27;8.48;;;17.30;99.90;;;;;;5072862;28;20201;-79
2022/09/01 06:43:06;;;;;;;10.93;9.00;;;17.40;99.90;;;;;;5072839;28;20193;-78
2022/09/01 06:45:35;;;;;;;10.30;9.40;;;17.50;99.90;;;;;;5072644;28;20201;-78
2022/09/01 06:48:03;;;;;;;8.85;8.05;;;17.70;99.90;;;;;;5072562;28;20205;-80
2022/09/01 06:50:30;;;;;;;9.90;9.00;;;17.80;99.90;;;;;;5072372;28;20262;-78
2022/09/01 06:53:09;;;;;;;9.32;8.40;;;17.90;99.90;;;;;;5072594;28;20599;-79
2022/09/01 06:55:36;;;;;;;9.32;8.48;;;17.80;99.90;;;;;;5072199;28;20591;-78
2022/09/01 06:58:06;;;;;;;9.02;8.10;;;18.00;99.90;;;;;;5072292;28;20810;-79
2022/09/01 07:00:36;;;;;;;9.98;9.02;;;18.10;99.90;;;;;;5072546;28;20201;-79
2022/09/01 07:03:08;;;;;;;10.27;9.27;;;18.20;99.90;;;;;;5072456;28;20201;-79
2022/09/01 07:05:36;;;;;;;12.27;9.20;;;18.20;99.90;;;;;;5072615;28;20196;-79
2022/09/01 07:08:07;;;;;;;10.55;9.02;;;18.20;99.90;;;;;;5072335;28;20307;-79
2022/09/01 07:10:34;;;;;;;10.25;9.20;;;18.30;99.90;;;;;;5074473;28;20660;-79
2022/09/01 07:13:00;;;;;;;9.82;8.43;;;18.40;99.90;;;;;;5076314;28;20564;-79
2022/09/01 07:15:31;;;;;;;13.10;9.75;;;18.50;99.90;;;;;;5076029;28;20604;-79
2022/09/01 07:17:57;;;;;;;10.85;9.57;;;18.70;99.90;;;;;;5076391;28;20204;-79
2022/09/01 07:20:27;;;;;;;10.27;9.23;;;18.90;99.90;;;;;;5076273;28;20341;-79
2022/09/01 07:22:56;;;;;;;9.43;8.50;;;19.00;99.90;;;;;;5075969;28;20599;-79
2022/09/01 07:25:24;;;;;;;10.82;9.50;;;19.20;99.90;;;;;;5076045;28;20203;-78
2022/09/01 07:27:51;;;;;;;9.07;8.27;;;19.30;99.90;;;;;;5075856;28;20201;-79
2022/09/01 07:30:19;;;;;;;12.98;9.07;;;19.30;99.90;;;;;;5075950;28;20649;-79
2022/09/01 07:32:47;;;;;;;9.85;8.85;;;19.50;99.90;;;;;;5076145;28;20197;-79
2022/09/01 07:35:17;;;;;;;9.73;8.93;;;19.50;99.90;;;;;;5075945;28;20201;-79
2022/09/01 07:37:43;;;;;;;9.23;8.32;;;19.50;99.90;;;;;;5075854;28;20232;-79
2022/09/01 07:40:12;;;;;;;10.13;9.23;;;19.60;99.90;;;;;;5075613;28;20653;-78
2022/09/01 07:42:41;;;;;;;9.50;8.60;;;19.80;99.90;;;;;;5075826;28;20197;-78
2022/09/01 07:45:09;;;;;;;12.50;9.20;;;20.00;99.90;;;;;;5075905;28;20197;-78
2022/09/01 07:47:37;;;;;;;10.77;9.13;;;20.30;99.90;;;;;;5075621;28;20279;-79
2022/09/01 07:50:07;;;;;;;9.20;7.90;;;20.30;99.90;;;;;;5075447;28;20653;-79
2022/09/01 07:52:35;;;;;;;8.07;7.38;;;20.40;99.90;;;;;;5075484;28;20201;-79
2022/09/01 07:55:02;;;;;;;9.68;7.93;;;20.40;99.90;;;;;;5075282;28;20258;-78
2022/09/01 07:57:29;;;;;;;9.00;8.10;;;20.60;99.90;;;;;;5075406;28;20220;-79
2022/09/01 07:59:57;;;;;;;9.45;8.20;;;20.60;99.90;;;;;;5075319;28;20197;-79
2022/09/01 08:02:26;;;;;;;8.45;7.60;;;20.60;99.90;;;;;;5075346;28;20204;-79
2022/09/01 08:04:54;;;;;;;7.95;7.25;;;20.90;99.90;;;;;;5075269;28;20336;-78
2022/09/01 08:07:20;;;;;;;7.97;7.35;;;20.90;99.90;;;;;;5075034;28;20680;-78
2022/09/01 08:09:47;;;;;;;8.52;7.30;;;21.00;99.90;;;;;;5075333;28;20534;-79
2022/09/01 08:12:14;;;;;;;7.70;7.03;;;20.90;99.90;;;;;;5075307;28;20661;-79
2022/09/01 08:14:40;;;;;;;9.30;7.90;;;20.90;99.90;;;;;;5075166;28;20197;-79
2022/09/01 08:17:09;;;;;;;9.63;7.80;;;20.90;99.90;;;;;;5074990;28;20224;-78
2022/09/01 08:19:36;;;;;;;8.50;7.70;;;20.90;99.90;;;;;;5075242;28;20193;-79
2022/09/01 08:22:03;;;;;;;8.85;7.90;;;20.70;99.90;;;;;;5074226;28;20660;-79
2022/09/01 08:24:29;;;;;;;10.18;7.95;;;20.90;99.90;;;;;;5075846;28;20201;-79
2022/09/01 08:26:56;;;;;;;8.95;7.75;;;21.00;99.90;;;;;;5075086;28;20564;-79
2022/09/01 08:29:23;;;;;;;9.10;8.02;;;20.80;99.90;;;;;;5074708;28;20591;-79
2022/09/01 08:31:49;;;;;;;8.48;7.70;;;20.90;99.90;;;;;;5075014;28;20236;-80
2022/09/01 08:34:18;;;;;;;8.45;7.60;;;20.80;99.90;;;;;;5074825;28;20196;-79
2022/09/01 08:36:45;;;;;;;7.93;7.22;;;20.90;99.90;;;;;;5074554;28;20699;-79
2022/09/01 08:39:11;;;;;;;9.82;7.45;;;21.20;99.90;;;;;;5074478;28;20197;-79
2022/09/01 08:41:43;;;;;;;8.98;8.07;;;21.40;99.90;;;;;;5074697;28;20278;-79
2022/09/01 08:44:19;;;;;;;9.30;7.95;;;21.60;99.90;;;;;;5074670;28;20197;-79
2022/09/01 08:46:46;;;;;;;8.02;7.32;;;21.80;99.90;;;;;;5074540;28;20281;-79
2022/09/01 08:49:16;;;;;;;9.02;7.95;;;21.80;99.90;;;;;;5074595;28;20201;-79
2022/09/01 08:51:50;;;;;;;9.85;8.00;;;21.80;99.90;;;;;;5074522;28;20200;-79
2022/09/01 08:54:23;;;;;;;8.65;7.57;;;21.70;99.90;;;;;;5074386;28;20699;-79
2022/09/01 08:56:54;;;;;;;8.48;7.68;;;21.70;99.90;;;;;;5074289;28;20233;-79
2022/09/01 08:59:21;;;;;;;9.02;8.13;;;21.90;99.90;;;;;;5074386;28;20197;-80
2022/09/01 09:01:54;;;;;;;8.98;8.07;;;22.00;99.90;;;;;;5074222;28;20193;-79
2022/09/01 09:04:31;;;;;;;7.88;7.18;;;22.00;99.90;;;;;;5074245;28;20197;-79
2022/09/01 09:07:07;;;;;;;8.43;7.30;;;22.20;99.90;;;;;;5074217;28;20200;-79
2022/09/01 09:09:40;;;;;;;8.05;6.80;;;22.30;99.90;;;;;;5074071;28;20250;-78
2022/09/01 09:12:32;;;;;;;7.47;6.60;;;22.30;99.90;;;;;;5073852;28;20193;-79
2022/09/01 09:15:09;;;;;;;7.18;6.57;;;22.50;99.90;;;;;;5073790;28;20710;-79
2022/09/01 09:17:40;;;;;;;8.02;7.32;;;22.50;99.90;;;;;;5073849;28;20228;-79
2022/09/01 09:20:08;;;;;;;8.32;6.80;;;22.30;99.90;;;;;;5073630;28;20242;-79
2022/09/01 09:22:35;;;;;;;5.82;5.32;;;22.30;99.90;;;;;;5073824;28;20201;-79
2022/09/01 09:25:07;;;;;;;8.80;6.10;;;22.80;99.90;;;;;;5073815;28;20264;-79
2022/09/01 09:27:36;;;;;;;6.97;5.53;;;23.00;99.90;;;;;;5073679;28;20193;-79
2022/09/01 09:30:06;;;;;;;5.40;5.00;;;23.10;99.90;;;;;;5073565;28;20201;-79
2022/09/01 09:32:46;;;;;;;5.75;5.25;;;23.50;99.90;;;;;;5073180;28;20246;-79
2022/09/01 09:35:24;;;;;;;5.85;4.93;;;23.70;99.90;;;;;;5073756;28;20197;-78
2022/09/01 09:37:53;;;;;;;6.13;5.60;;;23.60;99.90;;;;;;5073516;28;20224;-78
2022/09/01 09:40:22;;;;;;;5.57;4.97;;;23.80;99.90;;;;;;5073450;28;20201;-78
2022/09/01 09:43:05;;;;;;;6.20;5.32;;;23.70;99.90;;;;;;5073402;28;20226;-78
2022/09/01 09:45:34;;;;;;;7.70;5.63;;;24.00;99.90;;;;;;5073508;28;20189;-78
2022/09/01 09:48:06;;;;;;;6.03;5.43;;;24.20;99.90;;;;;;5073376;28;20204;-80
2022/09/01 09:50:36;;;;;;;5.60;5.10;;;24.60;99.90;;;;;;5073106;28;20710;-78
2022/09/01 09:53:18;;;;;;;11.20;6.00;;;24.80;99.90;;;;;;5073179;28;20259;-79
2022/09/01 09:55:56;;;;;;;6.78;5.75;;;24.50;99.90;;;;;;5072700;28;20700;-78
2022/09/01 09:58:25;;;;;;;6.28;5.53;;;24.80;99.90;;;;;;5073295;28;20235;-79
2022/09/01 10:01:14;;;;;;;5.60;5.10;;;25.00;99.90;;;;;;5073151;28;20207;-80
2022/09/01 10:03:44;;;;;;;7.00;6.40;;;24.80;99.90;;;;;;5072940;28;20229;-79
2022/09/01 10:06:29;;;;;;;6.90;6.30;;;24.40;99.90;;;;;;5072872;28;20193;-79
2022/09/01 10:08:58;;;;;;;6.70;6.20;;;24.00;99.90;;;;;;5073059;28;20203;-79
2022/09/01 10:11:29;;;;;;;8.40;5.68;;;23.90;99.90;;;;;;5073036;28;20266;-79
2022/09/01 10:13:57;;;;;;;6.22;5.75;;;24.30;99.90;;;;;;5072858;28;20726;-79
2022/09/01 10:16:29;;;;;;;7.40;5.40;;;24.50;99.90;;;;;;5072769;28;20193;-78
2022/09/01 10:18:59;;;;;;;7.18;5.53;;;24.70;99.90;;;;;;5073328;28;20204;-78
2022/09/01 10:21:32;;;;;;;7.25;6.00;;;24.30;99.90;;;;;;5072985;28;20197;-78
2022/09/01 10:24:04;;;;;;;6.75;5.55;;;24.20;99.90;;;;;;5072752;28;20698;-78
2022/09/01 10:26:35;;;;;;;9.93;5.47;;;24.40;99.90;;;;;;5072725;28;20722;-78
2022/09/01 10:29:07;;;;;;;5.57;5.05;;;24.70;99.90;;;;;;5072677;28;20205;-78
2022/09/01 10:31:35;;;;;;;6.57;5.13;;;25.10;99.90;;;;;;5073659;28;20652;-79
2022/09/01 10:34:04;;;;;;;6.32;5.20;;;25.50;99.90;;;;;;5073212;28;20197;-78
2022/09/01 10:36:32;;;;;;;7.63;4.97;;;25.90;99.90;;;;;;5072637;28;20203;-78
2022/09/01 10:39:00;;;;;;;5.65;5.15;;;25.80;99.90;;;;;;5072594;28;20287;-79
2022/09/01 10:41:53;;;;;;;5.82;5.35;;;25.50;99.90;;;;;;5072311;28;20640;-78
2022/09/01 10:44:22;;;;;;;7.28;5.22;;;25.90;99.90;;;;;;5072673;28;20239;-79
2022/09/01 10:46:50;;;;;;;6.22;4.85;;;26.00;99.90;;;;;;5076782;28;20242;-78
2022/09/01 10:49:40;;;;;;;5.70;5.30;;;26.00;99.90;;;;;;5076901;28;20250;-78
2022/09/01 10:52:06;;;;;;;6.22;5.00;;;26.00;99.90;;;;;;5076375;28;20211;-79
2022/09/01 10:54:55;;;;;;;5.72;4.80;;;26.40;99.90;;;;;;5076093;28;20630;-79
2022/09/01 10:57:36;;;;;;;5.93;4.68;;;26.30;99.90;;;;;;5066241;28;20604;-78
2022/09/01 11:00:46;;;;;;;5.38;4.93;;;26.10;99.90;;;;;;5076517;28;20203;-79
2022/09/01 11:03:50;;;;;;;6.88;4.80;;;27.10;99.90;;;;;;5076571;28;20197;-79
2022/09/01 11:06:53;;;;;;;5.90;4.00;;;28.50;99.60;;;;;;5076569;28;20219;-79
2022/09/01 11:09:25;;;;;;;4.50;4.00;;;29.10;97.10;;;;;;5077341;28;20559;-78
2022/09/01 11:12:27;;;;;;;4.97;3.28;;;30.60;93.30;;;;;;5077103;28;20203;-78
2022/09/01 11:14:56;;;;;;;4.88;3.78;;;31.50;88.80;;;;;;5014094;28;20200;-78
2022/09/01 11:17:25;;;;;;;4.32;3.92;;;31.50;83.00;;;;;;5062128;28;20303;-79
2022/09/01 11:19:59;;;;;;;3.78;3.47;;;31.60;79.10;;;;;;5076056;28;20208;-79
2022/09/01 11:22:32;;;;;;;3.58;3.28;;;32.10;75.30;;;;;;5076078;28;20231;-79
2022/09/01 11:25:37;;;;;;;6.95;3.70;;;31.50;69.00;;;;;;5076061;28;20203;-78
2022/09/01 11:28:35;;;;;;;5.28;4.40;;;30.30;70.60;;;;;;5076104;28;20207;-79
2022/09/01 11:31:09;;;;;;;6.82;3.40;;;29.50;72.30;;;;;;5075931;28;20254;-79
2022/09/01 11:33:52;;;;;;;4.07;3.78;;;28.70;75.80;;;;;;5075761;28;20200;-79
2022/09/01 11:36:27;;;;;;;4.03;3.63;;;28.60;75.80;;;;;;5076019;28;20254;-79
2022/09/01 11:38:59;;;;;;;5.18;3.60;;;28.30;74.80;;;;;;5075797;28;20228;-79
2022/09/01 11:41:32;;;;;;;4.30;3.83;;;28.10;74.20;;;;;;5075583;28;20197;-79
2022/09/01 11:44:03;;;;;;;4.68;4.13;;;28.40;74.00;;;;;;5075511;28;20645;-79
2022/09/01 11:46:32;;;;;;;4.20;3.90;;;27.90;75.90;;;;;;5075824;28;20727;-79
2022/09/01 11:49:05;;;;;;;6.03;4.57;;;27.60;77.50;;;;;;5075662;28;20201;-78
2022/09/01 11:51:43;;;;;;;4.25;3.85;;;28.00;75.30;;;;;;5075532;28;20223;-78
2022/09/01 11:54:11;;;;;;;4.95;4.40;;;28.00;73.60;;;;;;5075378;28;20246;-78
2022/09/01 11:56:37;;;;;;;5.50;4.10;;;27.60;73.50;;;;;;5075091;28;20262;-78
2022/09/01 11:59:05;;;;;;;4.85;4.28;;;27.40;75.50;;;;;;5075372;28;20773;-78
2022/09/01 12:01:35;;;;;;;4.30;4.00;;;27.20;75.40;;;;;;5075611;28;20196;-78
2022/09/01 12:04:21;;;;;;;6.18;4.63;;;27.00;77.10;;;;;;5075570;28;20247;-79
2022/09/01 12:06:55;;;;;;;4.75;4.22;;;26.50;77.30;;;;;;5075364;28;20197;-79
2022/09/01 12:09:22;;;;;;;4.78;4.30;;;26.40;78.90;;;;;;5075429;28;20270;-78
2022/09/01 12:11:50;;;;;;;4.45;4.03;;;26.50;78.60;;;;;;5075245;28;20200;-78
2022/09/01 12:14:22;;;;;;;4.63;4.22;;;26.80;79.60;;;;;;5075204;28;20193;-79
2022/09/01 12:16:58;;;;;;;4.80;4.38;;;26.90;78.50;;;;;;5075162;28;20221;-79
2022/09/01 12:19:27;;;;;;;4.40;4.05;;;26.80;77.60;;;;;;5074917;28;20205;-78
2022/09/01 12:21:59;;;;;;;7.00;4.20;;;26.40;78.50;;;;;;5075138;28;20255;-79
2022/09/01 12:24:27;;;;;;;4.78;4.38;;;26.30;78.40;;;;;;5075000;28;20197;-79
2022/09/01 12:26:57;;;;;;;5.13;3.92;;;26.10;79.30;;;;;;5074822;28;20204;-79
2022/09/01 12:29:25;;;;;;;4.82;4.32;;;26.10;79.90;;;;;;5074831;28;20624;-79
2022/09/01 12:31:53;;;;;;;4.40;4.00;;;26.00;79.20;;;;;;5074728;28;20201;-79
2022/09/01 12:34:35;;;;;;;4.32;3.88;;;26.10;78.90;;;;;;5074918;28;20232;-78
2022/09/01 12:37:03;;;;;;;4.35;3.92;;;26.10;78.50;;;;;;5074718;28;20201;-78
2022/09/01 12:39:34;;;;;;;4.63;4.18;;;26.30;79.00;;;;;;5074618;28;20275;-79
2022/09/01 12:42:05;;;;;;;4.32;3.97;;;26.10;79.40;;;;;;5074648;28;20201;-79
2022/09/01 12:44:35;;;;;;;4.38;3.97;;;26.10;79.20;;;;;;5074460;28;20201;-79
2022/09/01 12:47:05;;;;;;;4.53;4.13;;;26.10;77.00;;;;;;5074568;28;20201;-79
2022/09/01 12:49:39;;;;;;;4.43;4.03;;;26.00;76.70;;;;;;5074307;28;20252;-79
2022/09/01 12:52:12;;;;;;;4.07;3.78;;;25.90;77.40;;;;;;5074603;28;20280;-79
2022/09/01 12:54:39;;;;;;;4.60;4.20;;;26.20;78.40;;;;;;5074380;28;20224;-78
2022/09/01 12:57:07;;;;;;;4.93;3.88;;;26.40;77.80;;;;;;5074427;28;20546;-79